Kona International At Keahole Airport Kailua/Kona US
ICAO: PHKO
IATA: KOA
Category: Medium
Scheduled Services:

Elevation: 47 ft
TransAlt. 18000 ft.

Airport Communications:
ATIS:127.4
CLNC DEL:121.9
HONOLULU CNTR:126
CTAF:120.3
HONOLULU:123.6
TWR:120.3

PHKO Zoom In..

Runways:

(A) RW 17 length 11000 ft width 150 ft
ILS 109.70 / hdg 174

(B) RW 35 length 11000 ft width 150 ft
---- / hdg 354

Location; PHKO
Day. 19 / Time. 03.32 Zulu
* Altimeter: 29.94
* Temperature: 28° c. 82.4°f.
* Wind from: 230° Speed 06 kn.
Dewpoint: 22° c.
Visibility: 8 Statute Miles.
Clouds: Few 1100 ft.
Clouds: Scattered 2600 ft.
Clouds: Broken 4500 ft.
Conditions: Haze.

PHKO 190332Z 23006KT 8SM HZ FEW011 SCT026 BKN045 28/22 A2994 RMK AO2 T02780222


Wind From 230°
Speed 06 kn.

 
 
jpsmedia.com for Web Design worldairports.se 2018   terms of use